This is the latest recevied weather packets stored in our database for station/object CT1ETE-13. If no packets are shown the sender has not sent any weather packets the latest 10 day(s).
| Time | Temp. | Humidity | Pressure | Rain* | Wind** | Luminosity | Snow |
|---|---|---|---|---|---|---|---|
| 1787851362 | 17.78° C | 74% | 1014.6 hPa | 0 mm | - | 1440 W/m² | - |
| 1787850462 | 17.22° C | 75% | 1014.4 hPa | 0 mm | - | 1447 W/m² | - |
| 1787849562 | 17.22° C | 75% | 1014.2 hPa | 0 mm | - | 1447 W/m² | - |
| 1787848662 | 17.22° C | 77% | 1014 hPa | 0 mm | - | 1450 W/m² | - |
| 1787847822 | 17.22° C | 79% | 1013.9 hPa | 0 mm | - | 1452 W/m² | - |
| 1787846870 | 17.22° C | 81% | 1013.8 hPa | 1.02 mm | - | 1450 W/m² | - |
| 1787845958 | 16.67° C | 84% | 1013.6 hPa | 1.27 mm | - | 1454 W/m² | - |
| 1787845056 | 15.56° C | 84% | 1013.5 hPa | 1.27 mm | - | 1464 W/m² | - |
| 1787844156 | 15.56° C | 85% | 1013.4 hPa | 1.27 mm | - | 1466 W/m² | - |
| 1787843256 | 16.11° C | 83% | 1013.2 hPa | 0.25 mm | - | 1459 W/m² | - |
| 1787842356 | 16.11° C | 80% | 1013.1 hPa | 0 mm | - | 1459 W/m² | - |
| 1787841457 | 16.11° C | 81% | 1013.1 hPa | 0 mm | - | 1459 W/m² | - |
| 1787840550 | 16.11° C | 83% | 1012.9 hPa | 0 mm | - | 1459 W/m² | - |
| 1787839710 | 16.11° C | 84% | 1012.9 hPa | 0.25 mm | - | 1463 W/m² | - |
| 1787838750 | 15° C | 85% | 1012.8 hPa | 0.51 mm | - | 1470 W/m² | - |
| 1787837850 | 15° C | 79% | 1012.7 hPa | 0.51 mm | - | 1473 W/m² | - |
| 1787836950 | 14.44° C | 79% | 1012.4 hPa | 1.78 mm | - | 1473 W/m² | - |
| 1787836050 | 14.44° C | 81% | 1012 hPa | 1.52 mm | - | 1473 W/m² | - |
| 1787835144 | 15° C | 83% | 1011.7 hPa | 1.52 mm | - | 1470 W/m² | - |
| 1787834244 | 15° C | 85% | 1011.5 hPa | 1.27 mm | - | 1463 W/m² | - |
| 1787833344 | 17.22° C | 74% | 1011 hPa | 0 mm | - | 1438 W/m² | - |
| 1787832443 | 17.78° C | 73% | 1010.5 hPa | 0 mm | - | 1427 W/m² | - |
| 1787831543 | 17.78° C | 70% | 1010.3 hPa | 0 mm | - | 1431 W/m² | - |
| 1787830643 | 17.22° C | 77% | 1010.1 hPa | 0 mm | - | 1443 W/m² | - |
| 1787829803 | 16.67° C | 82% | 1010.2 hPa | 0 mm | - | 1455 W/m² | - |
* Rain latest hour (hover to see other rain measurements)
** Current wind speed in m/s (hover to see current wind gust speed)